Time;durP1;ratioP1;P1;durP2;ratioP2;P2;SDS_P1;SDS_P2;PMS_P1;PMS_P2;Temp;Humidity;BMP_temperature;BMP_pressure;BME280_temperature;BME280_humidity;BME280_pressure;Samples;Min_cycle;Max_cycle;Signal;HPM_P1;HPM_P2
2023/09/13 00:02:57;;;;;;;18.58;12.57;;;;;;;;;;4779603;30;20308;-91
2023/09/13 00:06:08;;;;;;;22.20;11.90;;;;;;;;;;4780351;30;20200;-91
2023/09/13 00:09:19;;;;;;;19.42;12.07;;;;;;;;;;4780785;30;20199;-93
2023/09/13 00:12:31;;;;;;;18.80;11.38;;;;;;;;;;4790470;30;20209;-91
2023/09/13 00:15:45;;;;;;;18.95;11.35;;;;;;;;;;4796305;30;20233;-92
2023/09/13 00:18:56;;;;;;;21.65;12.60;;;;;;;;;;4798286;30;20224;-92
2023/09/13 00:22:07;;;;;;;21.70;12.43;;;;;;;;;;4799307;30;20204;-92
2023/09/13 00:25:19;;;;;;;22.15;11.77;;;;;;;;;;4799002;30;20200;-90
2023/09/13 00:28:30;;;;;;;16.80;10.98;;;;;;;;;;4797574;30;20200;-94
2023/09/13 00:31:43;;;;;;;23.85;12.32;;;;;;;;;;4797626;30;20209;-90
2023/09/13 00:34:55;;;;;;;19.08;12.40;;;;;;;;;;4796676;30;20189;-90
2023/09/13 00:38:06;;;;;;;19.40;11.57;;;;;;;;;;4778993;30;20317;-93
2023/09/13 00:41:17;;;;;;;19.67;11.60;;;;;;;;;;4778259;30;20209;-91
2023/09/13 00:44:29;;;;;;;18.42;11.57;;;;;;;;;;4779583;30;20197;-93
2023/09/13 00:47:42;;;;;;;20.30;11.88;;;;;;;;;;4778659;30;20229;-89
2023/09/13 00:50:54;;;;;;;19.95;11.50;;;;;;;;;;4780182;30;20201;-90
2023/09/13 00:54:06;;;;;;;21.08;11.77;;;;;;;;;;4790422;30;20712;-92
2023/09/13 00:57:18;;;;;;;18.98;12.05;;;;;;;;;;4807630;29;20311;-94
2023/09/13 01:00:30;;;;;;;19.00;11.75;;;;;;;;;;4798849;30;20343;-90
2023/09/13 01:03:44;;;;;;;19.00;11.13;;;;;;;;;;4796946;30;20204;-91
2023/09/13 01:06:56;;;;;;;22.92;11.60;;;;;;;;;;4789099;29;20780;-91
2023/09/13 01:10:08;;;;;;;17.92;11.15;;;;;;;;;;4787336;30;20694;-93
2023/09/13 01:13:19;;;;;;;18.92;11.68;;;;;;;;;;4778183;30;20259;-90
2023/09/13 01:16:36;;;;;;;19.40;11.93;;;;;;;;;;4798126;29;20212;-92
2023/09/13 01:19:54;;;;;;;19.50;12.18;;;;;;;;;;4797067;30;20210;-94
2023/09/13 01:23:27;;;;;;;17.70;11.25;;;;;;;;;;4796763;30;20200;-94
2023/09/13 01:27:03;;;;;;;18.67;11.68;;;;;;;;;;4796721;30;20201;-92
2023/09/13 01:30:18;;;;;;;24.95;12.13;;;;;;;;;;4795343;30;20566;-92
2023/09/13 01:33:29;;;;;;;19.70;11.50;;;;;;;;;;4795499;30;20712;-91
2023/09/13 01:36:41;;;;;;;20.27;12.10;;;;;;;;;;4805109;29;20566;-90
2023/09/13 01:39:52;;;;;;;19.52;12.18;;;;;;;;;;4796000;30;20201;-90
2023/09/13 01:43:05;;;;;;;20.42;11.80;;;;;;;;;;4779574;30;20190;-93
2023/09/13 01:46:18;;;;;;;20.92;12.00;;;;;;;;;;4783995;30;20224;-88
2023/09/13 01:49:30;;;;;;;20.45;11.77;;;;;;;;;;4796536;30;20204;-92
2023/09/13 01:52:41;;;;;;;17.05;11.35;;;;;;;;;;4795385;29;20204;-92
2023/09/13 01:55:52;;;;;;;19.23;12.10;;;;;;;;;;4795364;30;20220;-91
2023/09/13 01:59:05;;;;;;;19.08;12.80;;;;;;;;;;4795420;30;20668;-93
2023/09/13 02:02:18;;;;;;;17.45;11.95;;;;;;;;;;4796156;30;20190;-93
2023/09/13 02:05:30;;;;;;;18.75;12.75;;;;;;;;;;4796742;30;20206;-92
2023/09/13 02:08:42;;;;;;;20.38;12.57;;;;;;;;;;4778966;30;20227;-94
2023/09/13 02:11:53;;;;;;;20.17;12.02;;;;;;;;;;4778625;30;20228;-92
2023/09/13 02:15:05;;;;;;;19.92;11.75;;;;;;;;;;4778391;30;20274;-91
2023/09/13 02:18:18;;;;;;;21.15;12.30;;;;;;;;;;4779124;30;20596;-90
2023/09/13 02:21:29;;;;;;;18.63;11.77;;;;;;;;;;4778158;30;20201;-89
2023/09/13 02:24:40;;;;;;;16.45;10.93;;;;;;;;;;4778397;30;20241;-93
2023/09/13 02:27:51;;;;;;;18.38;11.88;;;;;;;;;;4792640;30;20191;-91
2023/09/13 02:31:03;;;;;;;16.77;11.48;;;;;;;;;;4794927;30;20212;-94
2023/09/13 02:34:16;;;;;;;19.33;10.93;;;;;;;;;;4796077;30;20204;-92
2023/09/13 02:37:28;;;;;;;17.27;11.50;;;;;;;;;;4782023;30;20239;-92
2023/09/13 02:40:39;;;;;;;18.35;11.43;;;;;;;;;;4776227;30;20202;-94
2023/09/13 02:43:51;;;;;;;16.45;10.88;;;;;;;;;;4777042;30;20209;-92
2023/09/13 02:47:03;;;;;;;21.30;11.57;;;;;;;;;;4787018;30;20707;-91
2023/09/13 02:50:16;;;;;;;21.45;12.00;;;;;;;;;;4796516;30;20200;-92
2023/09/13 02:53:28;;;;;;;18.42;11.95;;;;;;;;;;4777408;30;20225;-91
2023/09/13 02:56:39;;;;;;;19.13;12.82;;;;;;;;;;4778450;30;20204;-92
2023/09/13 02:59:51;;;;;;;19.52;12.77;;;;;;;;;;4778293;30;20597;-93
2023/09/13 03:03:04;;;;;;;24.95;13.13;;;;;;;;;;4783309;30;20800;-88
2023/09/13 03:06:18;;;;;;;21.95;11.60;;;;;;;;;;4798539;30;20258;-93
2023/09/13 03:09:31;;;;;;;18.73;11.75;;;;;;;;;;4798642;30;20200;-92
2023/09/13 03:12:43;;;;;;;19.27;11.57;;;;;;;;;;4798072;30;20240;-92
2023/09/13 03:15:54;;;;;;;21.90;11.93;;;;;;;;;;4799355;30;20223;-91
2023/09/13 03:19:06;;;;;;;18.65;11.75;;;;;;;;;;4799273;30;20249;-92
2023/09/13 03:22:23;;;;;;;21.55;13.02;;;;;;;;;;4798828;30;20601;-92
2023/09/13 03:29:00;;;;;;;28.08;13.75;;;;;;;;;;4799332;30;20714;-93
2023/09/13 03:32:13;;;;;;;26.17;14.45;;;;;;;;;;4799090;30;20700;-87
2023/09/13 03:35:29;;;;;;;31.60;16.70;;;;;;;;;;4800468;30;20350;-93
2023/09/13 03:38:43;;;;;;;28.42;15.73;;;;;;;;;;4800349;30;21021;-92
2023/09/13 03:41:56;;;;;;;26.50;15.25;;;;;;;;;;4799846;30;20225;-94
2023/09/13 03:45:08;;;;;;;30.45;15.43;;;;;;;;;;4798904;30;20181;-91
2023/09/13 03:48:23;;;;;;;26.00;13.82;;;;;;;;;;4798412;30;20209;-93
2023/09/13 03:51:35;;;;;;;24.35;14.63;;;;;;;;;;4799904;30;20205;-93
2023/09/13 03:54:48;;;;;;;24.77;14.68;;;;;;;;;;4799235;30;20343;-92
2023/09/13 03:58:00;;;;;;;27.02;15.10;;;;;;;;;;4798700;30;20200;-93
2023/09/13 04:01:12;;;;;;;35.28;16.50;;;;;;;;;;4797169;30;20228;-91
2023/09/13 04:04:24;;;;;;;32.63;14.98;;;;;;;;;;4797837;30;20244;-93
2023/09/13 04:07:36;;;;;;;22.30;13.73;;;;;;;;;;4797378;30;20256;-91
2023/09/13 04:10:49;;;;;;;26.98;14.30;;;;;;;;;;4799326;30;20250;-90
2023/09/13 04:14:01;;;;;;;27.75;14.93;;;;;;;;;;4797627;30;20695;-92
2023/09/13 04:17:13;;;;;;;26.60;14.65;;;;;;;;;;4780976;30;20209;-90
2023/09/13 04:20:25;;;;;;;25.50;14.10;;;;;;;;;;4781046;30;20201;-91
2023/09/13 04:23:37;;;;;;;25.88;14.00;;;;;;;;;;4781544;30;20206;-92
2023/09/13 04:26:50;;;;;;;24.25;14.05;;;;;;;;;;4783926;30;20205;-90
2023/09/13 04:30:03;;;;;;;28.52;14.60;;;;;;;;;;4799768;30;20213;-92
2023/09/13 04:33:16;;;;;;;26.73;14.43;;;;;;;;;;4797777;30;20600;-91
2023/09/13 04:36:28;;;;;;;25.50;14.35;;;;;;;;;;4800188;30;20216;-93
2023/09/13 04:39:43;;;;;;;25.63;14.82;;;;;;;;;;4799550;30;20272;-93
2023/09/13 04:43:18;;;;;;;31.13;15.25;;;;;;;;;;4790383;30;20313;-92
2023/09/13 04:46:30;;;;;;;25.65;14.00;;;;;;;;;;4802001;30;20224;-90
2023/09/13 04:49:42;;;;;;;21.88;13.52;;;;;;;;;;4796441;30;20256;-92
2023/09/13 04:52:53;;;;;;;26.00;14.40;;;;;;;;;;4797989;30;20238;-89
2023/09/13 04:56:06;;;;;;;28.67;14.32;;;;;;;;;;4802461;30;20277;-92
2023/09/13 04:59:25;;;;;;;25.98;14.32;;;;;;;;;;4802061;30;20200;-93
2023/09/13 05:02:37;;;;;;;26.65;14.18;;;;;;;;;;4803270;30;20200;-91
2023/09/13 05:05:49;;;;;;;22.40;12.90;;;;;;;;;;4799052;30;20235;-91
2023/09/13 05:09:04;;;;;;;25.98;13.65;;;;;;;;;;4795582;30;20200;-90
2023/09/13 05:12:15;;;;;;;24.98;13.88;;;;;;;;;;4781885;30;20197;-92
2023/09/13 05:15:28;;;;;;;23.73;13.45;;;;;;;;;;4781787;30;20248;-90
2023/09/13 05:18:40;;;;;;;23.77;13.60;;;;;;;;;;4781569;30;20201;-88
2023/09/13 05:21:52;;;;;;;22.08;13.30;;;;;;;;;;4782341;30;20201;-90
2023/09/13 05:25:03;;;;;;;24.52;13.18;;;;;;;;;;4798760;30;20209;-90
2023/09/13 05:28:14;;;;;;;21.58;13.48;;;;;;;;;;4796397;30;20635;-88
2023/09/13 05:31:29;;;;;;;24.65;12.05;;;;;;;;;;4797741;30;20201;-86
2023/09/13 05:34:40;;;;;;;19.73;13.00;;;;;;;;;;4777838;30;20245;-90
2023/09/13 05:37:52;;;;;;;23.13;12.52;;;;;;;;;;4779760;30;20459;-88
2023/09/13 05:41:07;;;;;;;24.88;12.27;;;;;;;;;;4788184;30;20250;-92
2023/09/13 05:44:20;;;;;;;21.10;12.65;;;;;;;;;;4778393;30;20221;-90
2023/09/13 05:47:34;;;;;;;19.60;11.48;;;;;;;;;;4781531;30;20224;-89
2023/09/13 05:50:47;;;;;;;22.88;12.43;;;;;;;;;;4785840;30;20214;-90
2023/09/13 05:53:59;;;;;;;23.05;12.50;;;;;;;;;;4803840;30;20213;-89
2023/09/13 05:57:11;;;;;;;19.35;12.45;;;;;;;;;;4785819;30;20212;-91
2023/09/13 06:00:22;;;;;;;20.77;12.13;;;;;;;;;;4799060;30;20227;-88
2023/09/13 06:03:35;;;;;;;20.23;11.80;;;;;;;;;;4800851;30;20266;-88
2023/09/13 06:06:47;;;;;;;23.52;10.95;;;;;;;;;;4796135;30;20216;-90
2023/09/13 06:10:00;;;;;;;21.88;11.52;;;;;;;;;;4788924;30;20706;-87
2023/09/13 06:13:12;;;;;;;20.15;10.52;;;;;;;;;;4799842;30;20212;-85
2023/09/13 06:16:24;;;;;;;20.42;11.57;;;;;;;;;;4800202;30;20197;-88
2023/09/13 06:19:38;;;;;;;20.05;11.70;;;;;;;;;;4799873;30;20775;-90
2023/09/13 06:22:49;;;;;;;16.85;11.48;;;;;;;;;;4800232;30;20203;-90
2023/09/13 06:26:00;;;;;;;20.70;11.60;;;;;;;;;;4800750;30;20215;-87
2023/09/13 06:29:11;;;;;;;24.40;13.07;;;;;;;;;;4800220;30;20334;-90
2023/09/13 06:32:22;;;;;;;19.05;12.25;;;;;;;;;;4800869;30;20612;-89
2023/09/13 06:35:37;;;;;;;18.77;10.60;;;;;;;;;;4800012;30;20453;-88
2023/09/13 06:38:48;;;;;;;22.48;10.63;;;;;;;;;;4799604;29;20208;-89
2023/09/13 06:41:59;;;;;;;17.60;11.07;;;;;;;;;;4801552;30;20216;-89
2023/09/13 06:45:11;;;;;;;21.15;11.35;;;;;;;;;;4799848;30;20299;-89
2023/09/13 06:48:23;;;;;;;24.23;11.73;;;;;;;;;;4799044;30;20220;-89
2023/09/13 06:51:36;;;;;;;18.05;11.40;;;;;;;;;;4799604;30;20205;-86
2023/09/13 06:54:56;;;;;;;22.02;12.52;;;;;;;;;;4798581;30;20252;-88
2023/09/13 06:58:09;;;;;;;19.95;12.70;;;;;;;;;;4799775;30;20197;-90
2023/09/13 07:01:21;;;;;;;19.75;12.75;;;;;;;;;;4798286;30;20231;-87
2023/09/13 07:04:32;;;;;;;21.92;12.93;;;;;;;;;;4799931;30;20692;-87
2023/09/13 07:07:45;;;;;;;23.88;13.68;;;;;;;;;;4799042;30;20208;-87
2023/09/13 07:10:56;;;;;;;18.15;11.82;;;;;;;;;;4799940;30;20286;-88
2023/09/13 07:14:08;;;;;;;26.83;12.30;;;;;;;;;;4800744;30;20200;-87
2023/09/13 07:17:19;;;;;;;17.40;11.57;;;;;;;;;;4800270;30;20192;-87
2023/09/13 07:20:31;;;;;;;20.73;11.73;;;;;;;;;;4800060;30;20201;-90
2023/09/13 07:23:44;;;;;;;22.60;12.90;;;;;;;;;;4801211;30;20220;-89
2023/09/13 07:26:56;;;;;;;25.50;13.25;;;;;;;;;;4799674;30;20200;-88
2023/09/13 07:30:10;;;;;;;20.33;12.10;;;;;;;;;;4800695;29;20200;-88
2023/09/13 07:33:22;;;;;;;19.85;11.88;;;;;;;;;;4800685;29;20250;-88
2023/09/13 07:36:34;;;;;;;20.05;12.65;;;;;;;;;;4801979;30;20739;-86
2023/09/13 07:39:47;;;;;;;18.45;11.65;;;;;;;;;;4798226;30;20200;-89
2023/09/13 07:42:59;;;;;;;21.50;11.02;;;;;;;;;;4799121;30;20200;-85
2023/09/13 07:46:14;;;;;;;17.95;11.15;;;;;;;;;;4798227;30;20695;-85
2023/09/13 07:49:26;;;;;;;22.83;11.57;;;;;;;;;;4798776;29;20197;-90
2023/09/13 07:52:38;;;;;;;14.43;9.15;;;;;;;;;;4798808;30;20220;-90
2023/09/13 07:55:51;;;;;;;15.20;8.88;;;;;;;;;;4793362;30;20604;-89
2023/09/13 07:59:02;;;;;;;14.43;8.68;;;;;;;;;;4801364;29;20224;-87
2023/09/13 08:02:17;;;;;;;13.93;8.60;;;;;;;;;;4801457;30;20712;-90
2023/09/13 08:05:29;;;;;;;17.23;10.70;;;;;;;;;;4800622;30;20272;-88
2023/09/13 08:08:40;;;;;;;17.08;8.63;;;;;;;;;;4800828;29;20564;-91
2023/09/13 08:11:53;;;;;;;12.10;8.23;;;;;;;;;;4800798;30;20224;-90
2023/09/13 08:15:05;;;;;;;12.32;7.85;;;;;;;;;;4800182;29;20692;-88
2023/09/13 08:18:17;;;;;;;15.85;6.97;;;;;;;;;;4800596;30;20219;-89
2023/09/13 08:21:29;;;;;;;12.80;8.18;;;;;;;;;;4802089;30;20200;-90
2023/09/13 08:24:41;;;;;;;9.77;7.38;;;;;;;;;;4802776;30;20209;-89
2023/09/13 08:27:54;;;;;;;9.80;6.68;;;;;;;;;;4799953;29;20204;-89
2023/09/13 08:31:06;;;;;;;11.35;6.78;;;;;;;;;;4800769;29;20302;-87
2023/09/13 08:34:18;;;;;;;11.15;7.60;;;;;;;;;;4808711;29;20201;-90
2023/09/13 08:37:29;;;;;;;13.88;7.28;;;;;;;;;;4803060;29;20224;-89
2023/09/13 08:40:41;;;;;;;18.65;7.72;;;;;;;;;;4802862;29;20212;-86
2023/09/13 08:43:56;;;;;;;15.20;8.88;;;;;;;;;;4805661;29;20201;-91
2023/09/13 08:47:10;;;;;;;15.70;8.25;;;;;;;;;;4805476;30;20234;-90
2023/09/13 08:50:25;;;;;;;13.98;7.70;;;;;;;;;;4803958;29;20238;-90
2023/09/13 08:53:38;;;;;;;12.60;6.78;;;;;;;;;;4803236;29;20201;-88
2023/09/13 08:56:50;;;;;;;14.50;7.38;;;;;;;;;;4803059;30;20231;-90
2023/09/13 09:00:08;;;;;;;14.73;7.70;;;;;;;;;;4803773;30;20268;-90
2023/09/13 09:03:22;;;;;;;12.85;6.53;;;;;;;;;;4803103;30;20673;-89
2023/09/13 09:06:34;;;;;;;15.48;7.40;;;;;;;;;;4804648;29;20200;-89
2023/09/13 09:09:48;;;;;;;12.98;7.32;;;;;;;;;;4793286;30;20212;-88
2023/09/13 09:13:00;;;;;;;14.57;7.18;;;;;;;;;;4801172;30;20196;-90
2023/09/13 09:16:13;;;;;;;12.35;7.30;;;;;;;;;;4803580;30;20220;-88
2023/09/13 09:19:25;;;;;;;17.50;7.85;;;;;;;;;;4802345;29;20193;-87
2023/09/13 09:22:38;;;;;;;10.38;7.05;;;;;;;;;;4802132;29;20212;-89
2023/09/13 09:25:52;;;;;;;14.32;7.38;;;;;;;;;;4802303;29;20205;-88
2023/09/13 09:29:13;;;;;;;16.83;7.18;;;;;;;;;;4802567;30;20200;-90
2023/09/13 09:32:28;;;;;;;12.18;7.18;;;;;;;;;;4801111;30;20220;-86
2023/09/13 09:35:40;;;;;;;13.60;6.93;;;;;;;;;;4799638;30;20354;-87
2023/09/13 09:38:55;;;;;;;17.23;7.20;;;;;;;;;;4799287;29;20559;-89
2023/09/13 09:42:15;;;;;;;11.57;6.82;;;;;;;;;;4801310;30;20215;-89
2023/09/13 09:45:27;;;;;;;14.20;7.57;;;;;;;;;;4803148;30;20283;-89
2023/09/13 09:48:41;;;;;;;11.55;7.93;;;;;;;;;;4804343;29;20216;-88
2023/09/13 09:51:54;;;;;;;14.90;7.32;;;;;;;;;;4801095;30;20209;-89
2023/09/13 09:55:06;;;;;;;20.77;7.13;;;;;;;;;;4799765;29;20185;-91
2023/09/13 09:58:18;;;;;;;16.25;7.20;;;;;;;;;;4798974;29;20204;-88
2023/09/13 10:01:30;;;;;;;12.95;7.32;;;;;;;;;;4800103;30;20284;-88
2023/09/13 10:04:51;;;;;;;11.27;7.07;;;;;;;;;;4800118;29;20213;-90
2023/09/13 10:08:03;;;;;;;11.52;7.28;;;;;;;;;;4799958;30;20189;-87
2023/09/13 10:11:16;;;;;;;13.48;8.27;;;;;;;;;;4801223;29;20181;-89
2023/09/13 10:14:28;;;;;;;15.20;7.40;;;;;;;;;;4796974;29;20215;-85
2023/09/13 10:17:41;;;;;;;12.65;7.90;;;;;;;;;;4799336;29;20212;-89
2023/09/13 10:20:58;;;;;;;12.32;7.63;;;;;;;;;;4789907;30;20204;-88
2023/09/13 10:24:11;;;;;;;13.07;7.75;;;;;;;;;;4800403;29;20205;-90
2023/09/13 10:27:24;;;;;;;12.88;7.25;;;;;;;;;;4799528;30;20192;-87
2023/09/13 10:30:37;;;;;;;12.25;7.53;;;;;;;;;;4800136;30;20343;-90
2023/09/13 10:33:52;;;;;;;11.20;7.50;;;;;;;;;;4798010;30;20668;-90
2023/09/13 10:37:21;;;;;;;14.85;7.35;;;;;;;;;;4803357;29;20288;-89
2023/09/13 10:40:37;;;;;;;12.00;7.50;;;;;;;;;;4800539;29;20262;-93
2023/09/13 10:43:49;;;;;;;11.90;7.80;;;;;;;;;;4798599;30;20228;-88
2023/09/13 10:47:06;;;;;;;11.82;7.68;;;;;;;;;;4800934;30;20224;-89
2023/09/13 12:01:56;;;;;;;10.95;7.38;;;;;;;;;;5530215;24;20307;-89
2023/09/13 12:05:08;;;;;;;13.98;7.63;;;;;;;;;;4793477;29;20185;-90
2023/09/13 12:08:20;;;;;;;12.13;6.97;;;;;;;;;;4801183;29;20219;-89
2023/09/13 12:11:32;;;;;;;9.35;5.82;;;;;;;;;;4799265;29;20294;-91
2023/09/13 12:14:43;;;;;;;13.18;5.43;;;;;;;;;;4800881;29;20681;-92
2023/09/13 12:18:05;;;;;;;12.85;6.05;;;;;;;;;;4803268;29;20222;-89
2023/09/13 12:21:17;;;;;;;9.48;6.38;;;;;;;;;;4802386;30;20204;-87
2023/09/13 12:24:30;;;;;;;11.88;6.93;;;;;;;;;;4802283;29;20230;-89
2023/09/13 12:27:42;;;;;;;13.32;7.43;;;;;;;;;;4802381;29;20208;-85
2023/09/13 12:30:55;;;;;;;11.43;7.60;;;;;;;;;;4802365;29;20220;-89
2023/09/13 12:34:10;;;;;;;12.05;6.88;;;;;;;;;;4803504;29;20208;-89
2023/09/13 12:37:22;;;;;;;12.63;6.63;;;;;;;;;;4802891;29;20312;-91
2023/09/13 12:40:33;;;;;;;13.07;6.65;;;;;;;;;;4801338;29;20733;-88
2023/09/13 12:43:46;;;;;;;10.93;6.60;;;;;;;;;;4801946;29;20286;-89
2023/09/13 12:46:58;;;;;;;7.70;5.97;;;;;;;;;;4800781;29;20212;-88
2023/09/13 12:50:11;;;;;;;9.57;5.72;;;;;;;;;;4800693;29;20657;-89
2023/09/13 12:53:23;;;;;;;10.30;6.22;;;;;;;;;;4800803;29;20228;-90
2023/09/13 12:56:37;;;;;;;9.65;5.45;;;;;;;;;;4801841;29;20231;-91
2023/09/13 12:59:51;;;;;;;8.20;5.30;;;;;;;;;;4801489;29;20212;-88
2023/09/13 13:03:03;;;;;;;11.38;5.50;;;;;;;;;;4801286;30;20228;-89
2023/09/13 13:06:16;;;;;;;9.15;4.75;;;;;;;;;;4782216;29;20209;-88
2023/09/13 13:09:27;;;;;;;13.18;6.35;;;;;;;;;;4790310;29;20242;-88
2023/09/13 13:12:40;;;;;;;5.30;3.60;;;;;;;;;;4785625;30;20201;-88
2023/09/13 13:15:52;;;;;;;5.97;3.60;;;;;;;;;;4794731;30;20204;-90
2023/09/13 13:19:03;;;;;;;7.00;3.15;;;;;;;;;;4798737;30;20710;-90
2023/09/13 13:22:17;;;;;;;7.65;3.25;;;;;;;;;;4799025;30;20212;-91
2023/09/13 13:25:29;;;;;;;6.88;3.53;;;;;;;;;;4785056;30;20216;-87
2023/09/13 13:28:40;;;;;;;6.80;3.53;;;;;;;;;;4782560;30;20180;-89
2023/09/13 13:31:52;;;;;;;5.90;3.20;;;;;;;;;;4785400;30;20219;-89
2023/09/13 13:35:05;;;;;;;5.63;3.17;;;;;;;;;;4798122;29;20275;-88
2023/09/13 13:38:18;;;;;;;6.47;2.88;;;;;;;;;;4797422;29;20192;-89
2023/09/13 13:41:30;;;;;;;4.20;2.80;;;;;;;;;;4798056;30;20220;-89
2023/09/13 13:44:42;;;;;;;4.90;2.63;;;;;;;;;;4799289;30;20746;-92
2023/09/13 13:47:53;;;;;;;3.95;2.58;;;;;;;;;;4801300;29;20998;-91
2023/09/13 13:51:05;;;;;;;3.85;2.70;;;;;;;;;;4792434;30;20334;-91
2023/09/13 13:54:18;;;;;;;3.90;2.22;;;;;;;;;;4799409;30;20215;-89
2023/09/13 13:57:38;;;;;;;3.45;2.10;;;;;;;;;;4798781;30;20227;-89
2023/09/13 14:00:50;;;;;;;4.80;2.22;;;;;;;;;;4798159;30;20344;-88
2023/09/13 14:04:01;;;;;;;4.78;2.30;;;;;;;;;;4798731;30;20221;-91
2023/09/13 14:07:13;;;;;;;5.25;2.78;;;;;;;;;;4796093;30;20197;-89
2023/09/13 14:10:26;;;;;;;5.32;2.45;;;;;;;;;;4800356;29;20200;-89
2023/09/13 14:13:38;;;;;;;3.25;2.22;;;;;;;;;;4798119;29;20222;-91
2023/09/13 14:16:50;;;;;;;3.97;2.80;;;;;;;;;;4799004;29;20261;-89
2023/09/13 14:20:02;;;;;;;4.53;2.75;;;;;;;;;;4798635;29;20219;-89
2023/09/13 14:23:14;;;;;;;7.20;3.20;;;;;;;;;;4799506;29;20277;-90
2023/09/13 14:26:28;;;;;;;5.10;3.40;;;;;;;;;;4799201;30;20200;-89
2023/09/13 14:29:39;;;;;;;6.25;3.15;;;;;;;;;;4799268;29;20192;-90
2023/09/13 14:32:51;;;;;;;4.43;3.00;;;;;;;;;;4800042;29;20216;-92
2023/09/13 14:36:03;;;;;;;6.05;3.40;;;;;;;;;;4800387;30;20249;-89
2023/09/13 14:39:15;;;;;;;7.60;3.38;;;;;;;;;;4798474;29;20322;-89
2023/09/13 14:46:10;;;;;;;8.57;3.60;;;;;;;;;;4802361;30;20204;-88
2023/09/13 14:49:22;;;;;;;6.57;3.30;;;;;;;;;;4799846;30;20205;-88
2023/09/13 14:52:36;;;;;;;5.97;3.55;;;;;;;;;;4800234;30;20212;-88
2023/09/13 14:55:49;;;;;;;6.20;3.30;;;;;;;;;;4798545;29;20275;-91
2023/09/13 14:59:00;;;;;;;8.65;3.95;;;;;;;;;;4796401;29;20246;-88
2023/09/13 15:02:13;;;;;;;5.70;3.78;;;;;;;;;;4798329;30;20220;-88
2023/09/13 15:05:24;;;;;;;7.88;4.25;;;;;;;;;;4800059;29;20220;-91
2023/09/13 15:08:37;;;;;;;6.13;4.35;;;;;;;;;;4783283;30;20243;-92
2023/09/13 15:11:49;;;;;;;10.20;4.22;;;;;;;;;;4798737;30;20334;-90
2023/09/13 15:15:03;;;;;;;6.05;3.72;;;;;;;;;;4802512;30;20216;-89
2023/09/13 15:18:17;;;;;;;5.60;3.88;;;;;;;;;;4801777;30;20225;-89
2023/09/13 15:21:29;;;;;;;8.80;4.10;;;;;;;;;;4800923;29;20204;-88
2023/09/13 15:24:42;;;;;;;5.82;3.95;;;;;;;;;;4783998;30;20287;-88
2023/09/13 15:27:54;;;;;;;8.15;4.07;;;;;;;;;;4783026;30;20205;-88
2023/09/13 15:31:05;;;;;;;5.47;3.53;;;;;;;;;;4784696;29;20281;-91
2023/09/13 15:34:20;;;;;;;6.30;4.03;;;;;;;;;;4784727;30;20201;-88
2023/09/13 15:37:33;;;;;;;6.50;3.50;;;;;;;;;;4785152;29;20224;-90
2023/09/13 15:40:44;;;;;;;8.90;4.13;;;;;;;;;;4785605;29;20552;-89
2023/09/13 15:43:56;;;;;;;11.48;4.40;;;;;;;;;;4784101;30;20205;-90
2023/09/13 15:47:08;;;;;;;5.90;3.67;;;;;;;;;;4784043;29;20205;-89
2023/09/13 15:50:23;;;;;;;5.43;3.92;;;;;;;;;;4785282;30;20685;-90
2023/09/13 15:53:38;;;;;;;6.68;3.97;;;;;;;;;;4783495;30;20206;-91
2023/09/13 15:56:51;;;;;;;7.97;4.20;;;;;;;;;;4784742;30;20271;-90
2023/09/13 16:00:04;;;;;;;10.48;4.28;;;;;;;;;;4785668;29;20194;-91
2023/09/13 16:03:19;;;;;;;7.15;4.07;;;;;;;;;;4784073;30;20236;-92
2023/09/13 16:06:32;;;;;;;7.70;4.28;;;;;;;;;;4782757;30;20244;-91
2023/09/13 16:09:44;;;;;;;8.65;4.28;;;;;;;;;;4782725;30;20246;-91
2023/09/13 16:12:56;;;;;;;7.00;4.50;;;;;;;;;;4786193;29;20243;-91
2023/09/13 16:16:08;;;;;;;7.35;4.05;;;;;;;;;;4795171;29;20221;-88
2023/09/13 16:19:19;;;;;;;7.13;4.43;;;;;;;;;;4796408;29;20213;-89
2023/09/13 16:22:33;;;;;;;10.25;4.38;;;;;;;;;;4788502;29;20267;-90
2023/09/13 16:25:45;;;;;;;8.50;4.55;;;;;;;;;;4784279;30;20257;-93
2023/09/13 16:28:57;;;;;;;7.43;4.55;;;;;;;;;;4787202;30;20290;-90
2023/09/13 16:32:09;;;;;;;11.40;4.57;;;;;;;;;;4802560;30;20220;-90
2023/09/13 16:35:21;;;;;;;9.00;4.57;;;;;;;;;;4805059;29;20242;-90
2023/09/13 16:42:01;;;;;;;8.07;5.05;;;;;;;;;;4784073;29;20274;-90
2023/09/13 16:45:15;;;;;;;6.90;4.60;;;;;;;;;;4788152;29;20213;-91
2023/09/13 16:48:26;;;;;;;14.73;5.10;;;;;;;;;;4805164;29;20200;-88
2023/09/13 16:51:39;;;;;;;8.57;4.85;;;;;;;;;;4804460;29;20823;-91
2023/09/13 16:54:56;;;;;;;13.38;5.97;;;;;;;;;;4803733;30;20196;-91
2023/09/13 16:58:08;;;;;;;10.30;5.88;;;;;;;;;;4787649;30;20232;-90
2023/09/13 17:01:20;;;;;;;12.00;6.07;;;;;;;;;;4801782;30;20212;-89
2023/09/13 17:04:32;;;;;;;12.52;6.13;;;;;;;;;;4794467;30;20255;-90
2023/09/13 17:07:44;;;;;;;10.25;6.60;;;;;;;;;;4791868;30;20277;-89
2023/09/13 17:10:57;;;;;;;10.48;6.10;;;;;;;;;;4800258;30;20227;-90
2023/09/13 17:14:11;;;;;;;13.88;8.38;;;;;;;;;;4792947;30;20407;-89
2023/09/13 17:17:25;;;;;;;9.93;6.38;;;;;;;;;;4799010;30;20278;-88
2023/09/13 17:20:38;;;;;;;12.05;7.28;;;;;;;;;;4801467;30;20677;-88
2023/09/13 17:23:50;;;;;;;12.80;6.50;;;;;;;;;;4800510;29;20246;-90
2023/09/13 17:27:05;;;;;;;12.52;7.07;;;;;;;;;;4804318;30;20290;-91
2023/09/13 17:30:18;;;;;;;11.90;6.38;;;;;;;;;;4794938;30;20225;-90
2023/09/13 17:33:33;;;;;;;14.98;7.20;;;;;;;;;;4792859;30;20216;-87
2023/09/13 17:36:44;;;;;;;11.75;7.07;;;;;;;;;;4802095;30;20292;-88
2023/09/13 17:39:56;;;;;;;11.23;7.53;;;;;;;;;;4797961;30;20291;-89
2023/09/13 17:43:11;;;;;;;11.90;6.13;;;;;;;;;;4801218;30;20697;-90
2023/09/13 17:46:24;;;;;;;11.88;7.00;;;;;;;;;;4799016;30;20229;-90
2023/09/13 17:49:35;;;;;;;12.98;7.72;;;;;;;;;;4800409;30;20192;-91
2023/09/13 17:52:47;;;;;;;15.13;8.60;;;;;;;;;;4784888;30;20197;-91
2023/09/13 17:55:59;;;;;;;12.52;8.68;;;;;;;;;;4792246;30;20217;-91
2023/09/13 17:59:12;;;;;;;13.35;8.63;;;;;;;;;;4796586;30;20232;-91
2023/09/13 18:02:24;;;;;;;15.88;8.90;;;;;;;;;;4795497;30;20220;-89
2023/09/13 18:05:36;;;;;;;16.13;9.38;;;;;;;;;;4802187;30;20216;-87
2023/09/13 18:08:48;;;;;;;16.83;10.63;;;;;;;;;;4783879;30;20320;-89
2023/09/13 18:12:00;;;;;;;13.57;9.23;;;;;;;;;;4787202;30;20200;-91
2023/09/13 18:15:14;;;;;;;17.77;9.55;;;;;;;;;;4801149;30;20634;-90
2023/09/13 18:18:27;;;;;;;11.68;8.02;;;;;;;;;;4800490;30;20238;-87
2023/09/13 18:21:40;;;;;;;11.93;7.95;;;;;;;;;;4800475;30;20200;-89
2023/09/13 18:24:52;;;;;;;12.93;8.15;;;;;;;;;;4794538;30;20221;-88
2023/09/13 18:28:05;;;;;;;14.48;8.27;;;;;;;;;;4780853;30;20562;-88
2023/09/13 18:31:18;;;;;;;11.20;7.55;;;;;;;;;;4794563;30;20305;-90
2023/09/13 18:34:30;;;;;;;17.77;11.13;;;;;;;;;;4808030;29;20681;-90
2023/09/13 18:37:42;;;;;;;11.18;7.00;;;;;;;;;;4795825;30;20232;-89
2023/09/13 18:40:54;;;;;;;28.73;16.00;;;;;;;;;;4798451;30;20208;-90
2023/09/13 18:44:09;;;;;;;14.82;8.68;;;;;;;;;;4781460;30;20332;-88
2023/09/13 18:47:23;;;;;;;12.85;7.80;;;;;;;;;;4791037;30;20204;-90
2023/09/13 18:54:03;;;;;;;15.40;9.13;;;;;;;;;;4798677;30;20253;-88
2023/09/13 18:57:16;;;;;;;13.85;8.50;;;;;;;;;;4797306;30;20339;-89
2023/09/13 19:00:27;;;;;;;20.70;8.85;;;;;;;;;;4796927;30;20200;-89
2023/09/13 19:03:40;;;;;;;13.88;8.40;;;;;;;;;;4797866;30;20248;-88
2023/09/13 19:06:51;;;;;;;17.25;9.70;;;;;;;;;;4792247;30;20204;-91
2023/09/13 19:10:05;;;;;;;12.65;9.23;;;;;;;;;;4793349;30;20212;-91
2023/09/13 19:13:17;;;;;;;13.57;8.80;;;;;;;;;;4793211;30;20200;-90
2023/09/13 19:16:31;;;;;;;15.63;9.18;;;;;;;;;;4794145;30;20228;-89
2023/09/13 19:19:45;;;;;;;17.10;10.93;;;;;;;;;;4810288;29;20315;-89
2023/09/13 19:22:56;;;;;;;16.67;9.50;;;;;;;;;;4783339;30;20308;-88
2023/09/13 19:26:08;;;;;;;15.95;9.18;;;;;;;;;;4781839;30;20200;-89
2023/09/13 19:29:19;;;;;;;15.18;9.20;;;;;;;;;;4785719;30;20217;-88
2023/09/13 19:32:32;;;;;;;16.77;10.07;;;;;;;;;;4798707;30;20220;-88
2023/09/13 19:35:46;;;;;;;15.77;9.75;;;;;;;;;;4798749;30;20212;-90
2023/09/13 19:39:00;;;;;;;21.73;12.90;;;;;;;;;;4791684;30;20241;-88
2023/09/13 19:42:12;;;;;;;20.83;13.25;;;;;;;;;;4781501;30;20254;-89
2023/09/13 19:45:24;;;;;;;17.85;10.30;;;;;;;;;;4796293;29;20212;-89
2023/09/13 19:48:36;;;;;;;18.85;12.32;;;;;;;;;;4800782;30;20328;-87
2023/09/13 19:51:51;;;;;;;22.67;13.02;;;;;;;;;;4804929;29;20218;-89
2023/09/13 19:55:02;;;;;;;14.30;9.73;;;;;;;;;;4798797;30;20228;-88
2023/09/13 19:58:14;;;;;;;15.23;9.20;;;;;;;;;;4804052;30;20292;-89
2023/09/13 20:01:34;;;;;;;17.27;9.07;;;;;;;;;;4793785;30;20217;-90
2023/09/13 20:04:47;;;;;;;15.10;9.23;;;;;;;;;;4785673;30;20209;-92
2023/09/13 20:08:00;;;;;;;14.82;9.23;;;;;;;;;;4787609;30;20209;-88
2023/09/13 20:11:12;;;;;;;15.52;8.95;;;;;;;;;;4783293;30;20227;-90
2023/09/13 20:14:23;;;;;;;15.10;9.32;;;;;;;;;;4790173;30;20220;-91
2023/09/13 20:17:35;;;;;;;16.08;8.80;;;;;;;;;;4784449;30;20206;-91
2023/09/13 20:20:47;;;;;;;15.05;8.23;;;;;;;;;;4780470;30;20206;-93